Flight Track Log - Related Links

Times and Time Zones

All times are in EDT time to prevent confusion due to time zone crossing. See the EJA641 flight status page for this flight to view local times or setup timezone preferences in your user account.

Time Position Orientation Groundspeed Altitude Reporting Facility
EDT Latitude Longitude Course Direction KTS MPH feet Rate Location/Type
Thu 09:46:24 PM 41.3103 -95.9011 324° Northwest 163 188 1,700  Level Minneapolis Center
Thu 09:46:55 PM 41.3281 -95.9186 324° Northwest 168 193 3,400 3,231 Climbing Minneapolis Center
Thu 09:47:55 PM 41.3406 -95.9808 285° West 223 257 6,600 3,458 Climbing Minneapolis Center
Thu 09:48:53 PM 41.2839 -96.0258 211° Southwest 255 293 10,200 3,782 Climbing Minneapolis Center
Thu 09:49:54 PM 41.1958 -96.0378 186° South 324 373 14,100 3,882 Climbing Minneapolis Center
Thu 09:51:09 PM 41.0894 -96.0733 194° South 336 387 19,000 3,397 Climbing Minneapolis Center
Thu 09:52:10 PM 41.0008 -96.1150 200° South 335 386 21,800 1,463 Climbing Minneapolis Center
Thu 09:53:12 PM 40.9003 -96.1622 200° South 364 419 22,000 97 Climbing Minneapolis Center
Thu 09:54:14 PM 40.7811 -96.2186 200° South 379 436 22,000  Level Minneapolis Center
Thu 09:55:16 PM 40.6808 -96.2656 200° South 379 436 22,000  Level Minneapolis Center
Thu 09:56:18 PM 40.5778 -96.3142 200° South 389 448 22,000  Level Minneapolis Center
Thu 09:57:20 PM 40.4764 -96.3606 199° South 389 448 22,000  Level Minneapolis Center
Thu 09:58:21 PM 40.3803 -96.4056 200° South 375 432 22,000  Level Minneapolis Center
Thu 09:59:23 PM 40.2847 -96.4511 200° South 368 423 22,000  Level Minneapolis Center
Thu 10:00:25 PM 40.1883 -96.4953 199° South 367 422 22,000  Level Minneapolis Center
Thu 10:01:27 PM 40.0700 -96.5492 199° South 371 427 22,000  Level Minneapolis Center
Thu 10:02:28 PM 39.9731 -96.5947 200° South 371 427 22,000  Level Minneapolis Center
Thu 10:03:30 PM 39.8753 -96.6392 199° South 371 427 22,000  Level Minneapolis Center
Thu 10:03:49 PM 39.8514 -96.6500 199° South 377 434 22,000  Level Kansas City Center
Thu 10:04:52 PM 39.7481 -96.6956 199° South 380 437 22,000  Level Kansas City Center
Thu 10:05:52 PM 39.6378 -96.7464 200° South 378 435 22,000  Level Kansas City Center
Thu 10:06:53 PM 39.5422 -96.7894 199° South 379 436 22,000  Level Kansas City Center
Thu 10:07:55 PM 39.4475 -96.8325 199° South 378 435 22,000  Level Kansas City Center
Thu 10:08:55 PM 39.3353 -96.8833 199° South 382 440 22,000  Level Kansas City Center
Thu 10:09:56 PM 39.2406 -96.9258 199° South 378 435 22,000  Level Kansas City Center
Thu 10:10:57 PM 39.1286 -96.9747 199° South 381 438 22,000  Level Kansas City Center
Thu 10:11:58 PM 39.0303 -97.0192 199° South 387 445 22,000  Level Kansas City Center
Thu 10:13:01 PM 38.9417 -97.0617 200° South 380 437 22,000 -829 Level Kansas City Center
Thu 10:14:01 PM 38.8211 -97.1144 199° South 382 440 20,300 -1,636 Descending Kansas City Center
Thu 10:15:02 PM 38.7208 -97.1589 199° South 380 437 18,700 -1,475 Descending Kansas City Center
Thu 10:16:03 PM 38.6225 -97.2031 199° South 374 430 17,300 -1,403 Descending Kansas City Center
Thu 10:17:06 PM 38.5253 -97.2456 199° South 369 425 15,800 -1,500 Descending Kansas City Center
Thu 10:18:07 PM 38.4306 -97.2867 199° South 361 415 14,200 -1,512 Descending Kansas City Center
Thu 10:19:09 PM 38.3342 -97.3131 192° South 352 405 12,700 -1,537 Descending Kansas City Center
Thu 10:20:08 PM 38.2361 -97.3269 186° South 353 406 11,100 -1,600 Descending Kansas City Center
Thu 10:21:09 PM 38.1450 -97.3397 186° South 318 366 9,500 -1,579 Descending Kansas City Center
Thu 10:22:21 PM 38.0431 -97.3547 187° South 279 321 7,600 -1,512 Descending Kansas City Center
Thu 10:23:12 PM 37.9847 -97.3633 187° South 288 331 6,400 -1,446 Descending Kansas City Center
Thu 10:24:13 PM 37.9056 -97.3758 187° South 283 326 4,900 -1,500 Descending Kansas City Center
Thu 10:25:16 PM 37.8261 -97.3800 182° South 284 327 3,300 -927 Descending Kansas City Center
Thu 10:26:16 PM 37.7539 -97.3800 180° South 274 315 3,000 -150 Descending Kansas City Center
Thu 10:27:16 PM 37.6956 -97.3831 182° South 238 274 3,000 -97 Level Kansas City Center
Thu 10:28:20 PM 37.6350 -97.3864 182° South 204 235 2,800 -242 Descending Kansas City Center
Thu 10:29:20 PM 37.6058 -97.4017 203° Southwest 170 196 2,500 -400 Descending Kansas City Center
Thu 10:30:20 PM 37.6139 -97.4317 289° West 138 159 2,000 -496 Descending Kansas City Center
Thu 10:31:21 PM 37.6478 -97.4250 North 132 152 1,500 -492 Descending Kansas City Center

Login

Don't have an account? Register now (free) for customized features, flight alerts, and more!